sensor_id;sensor_type;location;lat;lon;timestamp;P1;durP1;ratioP1;P2;durP2;ratioP2
21624;SDS011;10974;51.034;3.744;2023-05-07T03:39:54;7.80;;;5.13;;
21624;SDS011;10974;51.034;3.744;2023-05-07T03:42:20;9.70;;;5.13;;
21624;SDS011;10974;51.034;3.744;2023-05-07T03:44:46;9.57;;;4.47;;
21624;SDS011;10974;51.034;3.744;2023-05-07T03:47:12;9.47;;;5.27;;
21624;SDS011;10974;51.034;3.744;2023-05-07T03:49:38;9.43;;;5.10;;
21624;SDS011;10974;51.034;3.744;2023-05-07T03:52:05;11.50;;;5.30;;
21624;SDS011;10974;51.034;3.744;2023-05-07T03:54:31;9.57;;;5.10;;
21624;SDS011;10974;51.034;3.744;2023-05-07T03:56:57;9.53;;;4.33;;
21624;SDS011;10974;51.034;3.744;2023-05-07T03:59:23;6.50;;;4.30;;
21624;SDS011;10974;51.034;3.744;2023-05-07T04:01:49;11.93;;;5.20;;
21624;SDS011;10974;51.034;3.744;2023-05-07T04:04:16;8.67;;;5.07;;
21624;SDS011;10974;51.034;3.744;2023-05-07T04:06:42;7.70;;;4.80;;
21624;SDS011;10974;51.034;3.744;2023-05-07T04:09:08;7.10;;;4.33;;
21624;SDS011;10974;51.034;3.744;2023-05-07T04:11:35;18.23;;;5.93;;
21624;SDS011;10974;51.034;3.744;2023-05-07T04:14:01;8.10;;;5.10;;
21624;SDS011;10974;51.034;3.744;2023-05-07T04:16:27;9.23;;;4.77;;
21624;SDS011;10974;51.034;3.744;2023-05-07T04:18:53;11.00;;;5.50;;
21624;SDS011;10974;51.034;3.744;2023-05-07T04:21:20;5.93;;;4.80;;
21624;SDS011;10974;51.034;3.744;2023-05-07T04:23:46;9.20;;;5.07;;
21624;SDS011;10974;51.034;3.744;2023-05-07T04:26:13;8.27;;;5.33;;
21624;SDS011;10974;51.034;3.744;2023-05-07T04:28:39;7.60;;;4.37;;
21624;SDS011;10974;51.034;3.744;2023-05-07T04:31:06;8.23;;;5.33;;
21624;SDS011;10974;51.034;3.744;2023-05-07T04:33:32;8.17;;;4.33;;
21624;SDS011;10974;51.034;3.744;2023-05-07T04:36:00;11.20;;;5.27;;
21624;SDS011;10974;51.034;3.744;2023-05-07T04:38:28;9.30;;;5.50;;
21624;SDS011;10974;51.034;3.744;2023-05-07T04:40:55;9.73;;;5.20;;
21624;SDS011;10974;51.034;3.744;2023-05-07T04:43:22;12.10;;;5.50;;
21624;SDS011;10974;51.034;3.744;2023-05-07T04:45:49;12.40;;;5.30;;
21624;SDS011;10974;51.034;3.744;2023-05-07T04:48:15;9.60;;;5.30;;
21624;SDS011;10974;51.034;3.744;2023-05-07T04:50:44;7.63;;;4.83;;
21624;SDS011;10974;51.034;3.744;2023-05-07T04:53:10;7.73;;;4.73;;
21624;SDS011;10974;51.034;3.744;2023-05-07T04:55:36;6.50;;;4.73;;
21624;SDS011;10974;51.034;3.744;2023-05-07T04:58:02;8.17;;;5.70;;
21624;SDS011;10974;51.034;3.744;2023-05-07T05:00:29;12.27;;;5.40;;
21624;SDS011;10974;51.034;3.744;2023-05-07T05:02:56;6.87;;;4.67;;
21624;SDS011;10974;51.034;3.744;2023-05-07T05:05:22;7.90;;;4.97;;
21624;SDS011;10974;51.034;3.744;2023-05-07T05:07:48;8.50;;;5.23;;
21624;SDS011;10974;51.034;3.744;2023-05-07T05:10:14;9.47;;;4.73;;
21624;SDS011;10974;51.034;3.744;2023-05-07T05:12:41;9.83;;;5.53;;
21624;SDS011;10974;51.034;3.744;2023-05-07T05:15:07;9.10;;;5.47;;
21624;SDS011;10974;51.034;3.744;2023-05-07T05:17:33;9.80;;;5.53;;
21624;SDS011;10974;51.034;3.744;2023-05-07T05:20:00;9.53;;;5.40;;
21624;SDS011;10974;51.034;3.744;2023-05-07T05:22:26;11.30;;;5.37;;
21624;SDS011;10974;51.034;3.744;2023-05-07T05:24:54;9.93;;;5.77;;
21624;SDS011;10974;51.034;3.744;2023-05-07T05:27:20;6.93;;;4.80;;
21624;SDS011;10974;51.034;3.744;2023-05-07T05:29:46;6.87;;;4.43;;
21624;SDS011;10974;51.034;3.744;2023-05-07T05:32:13;9.13;;;4.70;;
21624;SDS011;10974;51.034;3.744;2023-05-07T05:34:39;8.97;;;5.27;;
21624;SDS011;10974;51.034;3.744;2023-05-07T05:37:05;10.33;;;5.03;;
21624;SDS011;10974;51.034;3.744;2023-05-07T05:39:31;6.30;;;4.37;;
21624;SDS011;10974;51.034;3.744;2023-05-07T05:41:57;7.57;;;4.77;;
21624;SDS011;10974;51.034;3.744;2023-05-07T05:44:23;10.57;;;5.13;;
21624;SDS011;10974;51.034;3.744;2023-05-07T05:46:50;7.30;;;4.47;;
21624;SDS011;10974;51.034;3.744;2023-05-07T05:49:16;8.83;;;4.60;;
21624;SDS011;10974;51.034;3.744;2023-05-07T05:51:42;10.50;;;4.23;;
21624;SDS011;10974;51.034;3.744;2023-05-07T05:54:09;8.37;;;4.50;;
21624;SDS011;10974;51.034;3.744;2023-05-07T05:56:35;11.27;;;4.43;;
21624;SDS011;10974;51.034;3.744;2023-05-07T05:59:01;8.40;;;4.37;;
21624;SDS011;10974;51.034;3.744;2023-05-07T06:01:27;13.87;;;5.20;;
21624;SDS011;10974;51.034;3.744;2023-05-07T06:03:53;13.10;;;4.47;;
21624;SDS011;10974;51.034;3.744;2023-05-07T06:06:19;9.33;;;4.83;;
21624;SDS011;10974;51.034;3.744;2023-05-07T06:08:45;8.20;;;4.77;;
21624;SDS011;10974;51.034;3.744;2023-05-07T06:11:11;7.60;;;4.50;;
21624;SDS011;10974;51.034;3.744;2023-05-07T06:13:37;6.37;;;4.33;;
21624;SDS011;10974;51.034;3.744;2023-05-07T06:16:03;10.60;;;4.90;;
21624;SDS011;10974;51.034;3.744;2023-05-07T06:18:29;7.03;;;4.70;;
21624;SDS011;10974;51.034;3.744;2023-05-07T06:20:55;9.30;;;4.23;;
21624;SDS011;10974;51.034;3.744;2023-05-07T06:23:21;8.77;;;4.70;;
21624;SDS011;10974;51.034;3.744;2023-05-07T06:25:50;7.70;;;4.23;;
21624;SDS011;10974;51.034;3.744;2023-05-07T06:28:17;4.57;;;3.87;;
21624;SDS011;10974;51.034;3.744;2023-05-07T06:30:43;7.70;;;4.20;;
21624;SDS011;10974;51.034;3.744;2023-05-07T06:33:09;6.63;;;3.87;;
21624;SDS011;10974;51.034;3.744;2023-05-07T06:35:35;6.10;;;4.10;;
21624;SDS011;10974;51.034;3.744;2023-05-07T06:38:01;4.50;;;4.10;;
21624;SDS011;10974;51.034;3.744;2023-05-07T06:40:27;5.20;;;3.83;;
21624;SDS011;10974;51.034;3.744;2023-05-07T06:42:53;7.60;;;3.80;;
21624;SDS011;10974;51.034;3.744;2023-05-07T06:45:19;6.57;;;4.03;;
21624;SDS011;10974;51.034;3.744;2023-05-07T06:47:45;6.90;;;3.60;;
21624;SDS011;10974;51.034;3.744;2023-05-07T06:50:12;6.30;;;3.70;;
21624;SDS011;10974;51.034;3.744;2023-05-07T06:52:38;8.10;;;4.63;;
21624;SDS011;10974;51.034;3.744;2023-05-07T06:55:04;6.90;;;4.40;;
21624;SDS011;10974;51.034;3.744;2023-05-07T06:57:30;5.47;;;3.50;;
21624;SDS011;10974;51.034;3.744;2023-05-07T06:59:56;6.03;;;4.10;;
21624;SDS011;10974;51.034;3.744;2023-05-07T07:02:22;12.93;;;3.67;;
21624;SDS011;10974;51.034;3.744;2023-05-07T07:04:48;5.50;;;3.60;;
21624;SDS011;10974;51.034;3.744;2023-05-07T07:07:14;6.00;;;3.50;;
21624;SDS011;10974;51.034;3.744;2023-05-07T07:09:41;6.10;;;3.77;;
21624;SDS011;10974;51.034;3.744;2023-05-07T07:12:07;5.87;;;3.40;;
21624;SDS011;10974;51.034;3.744;2023-05-07T07:14:33;5.93;;;3.57;;
21624;SDS011;10974;51.034;3.744;2023-05-07T07:16:59;5.30;;;3.73;;
21624;SDS011;10974;51.034;3.744;2023-05-07T07:19:25;5.17;;;3.50;;
21624;SDS011;10974;51.034;3.744;2023-05-07T07:21:51;5.07;;;3.07;;
21624;SDS011;10974;51.034;3.744;2023-05-07T07:24:17;4.17;;;3.30;;
21624;SDS011;10974;51.034;3.744;2023-05-07T07:26:46;5.23;;;3.40;;
21624;SDS011;10974;51.034;3.744;2023-05-07T07:29:12;7.23;;;3.80;;
21624;SDS011;10974;51.034;3.744;2023-05-07T07:31:38;5.87;;;3.67;;
21624;SDS011;10974;51.034;3.744;2023-05-07T07:34:04;8.90;;;4.10;;
21624;SDS011;10974;51.034;3.744;2023-05-07T07:36:30;4.60;;;3.20;;
21624;SDS011;10974;51.034;3.744;2023-05-07T07:38:56;6.10;;;3.43;;
21624;SDS011;10974;51.034;3.744;2023-05-07T07:41:23;6.90;;;3.33;;
21624;SDS011;10974;51.034;3.744;2023-05-07T07:43:49;6.13;;;3.90;;
21624;SDS011;10974;51.034;3.744;2023-05-07T07:46:15;10.87;;;4.00;;
21624;SDS011;10974;51.034;3.744;2023-05-07T07:48:41;11.47;;;4.10;;
21624;SDS011;10974;51.034;3.744;2023-05-07T07:51:07;6.80;;;3.50;;
21624;SDS011;10974;51.034;3.744;2023-05-07T07:53:33;6.77;;;3.47;;
21624;SDS011;10974;51.034;3.744;2023-05-07T07:55:59;7.50;;;3.27;;
21624;SDS011;10974;51.034;3.744;2023-05-07T07:58:25;4.57;;;3.60;;
21624;SDS011;10974;51.034;3.744;2023-05-07T08:00:51;5.20;;;2.93;;
21624;SDS011;10974;51.034;3.744;2023-05-07T08:03:17;8.43;;;3.10;;
21624;SDS011;10974;51.034;3.744;2023-05-07T08:05:44;5.90;;;3.33;;
21624;SDS011;10974;51.034;3.744;2023-05-07T08:08:10;4.80;;;3.30;;
21624;SDS011;10974;51.034;3.744;2023-05-07T08:10:37;8.37;;;3.90;;
21624;SDS011;10974;51.034;3.744;2023-05-07T08:13:04;8.67;;;3.27;;
21624;SDS011;10974;51.034;3.744;2023-05-07T08:15:30;6.23;;;3.50;;
21624;SDS011;10974;51.034;3.744;2023-05-07T08:17:57;7.63;;;3.73;;
21624;SDS011;10974;51.034;3.744;2023-05-07T08:20:25;6.43;;;3.40;;
21624;SDS011;10974;51.034;3.744;2023-05-07T08:22:51;7.50;;;3.93;;
21624;SDS011;10974;51.034;3.744;2023-05-07T08:25:17;6.10;;;3.90;;
21624;SDS011;10974;51.034;3.744;2023-05-07T08:27:43;6.40;;;4.00;;
21624;SDS011;10974;51.034;3.744;2023-05-07T08:30:10;6.20;;;3.67;;
21624;SDS011;10974;51.034;3.744;2023-05-07T08:32:36;8.10;;;3.33;;
21624;SDS011;10974;51.034;3.744;2023-05-07T08:35:02;4.73;;;3.43;;
21624;SDS011;10974;51.034;3.744;2023-05-07T08:37:28;6.40;;;3.60;;
21624;SDS011;10974;51.034;3.744;2023-05-07T08:39:54;5.80;;;3.60;;
21624;SDS011;10974;51.034;3.744;2023-05-07T08:42:20;7.20;;;3.90;;
21624;SDS011;10974;51.034;3.744;2023-05-07T08:44:48;10.83;;;4.47;;
21624;SDS011;10974;51.034;3.744;2023-05-07T08:47:18;6.23;;;4.03;;
21624;SDS011;10974;51.034;3.744;2023-05-07T08:49:44;6.40;;;4.37;;
21624;SDS011;10974;51.034;3.744;2023-05-07T08:52:11;7.37;;;4.37;;
21624;SDS011;10974;51.034;3.744;2023-05-07T08:54:37;6.27;;;3.80;;
21624;SDS011;10974;51.034;3.744;2023-05-07T08:57:04;6.30;;;4.37;;
21624;SDS011;10974;51.034;3.744;2023-05-07T08:59:30;7.53;;;4.00;;
21624;SDS011;10974;51.034;3.744;2023-05-07T09:01:56;5.80;;;3.73;;
21624;SDS011;10974;51.034;3.744;2023-05-07T09:04:22;7.37;;;4.20;;
21624;SDS011;10974;51.034;3.744;2023-05-07T09:06:48;6.97;;;4.47;;
21624;SDS011;10974;51.034;3.744;2023-05-07T09:09:16;5.47;;;4.60;;
21624;SDS011;10974;51.034;3.744;2023-05-07T09:11:45;6.20;;;4.40;;
21624;SDS011;10974;51.034;3.744;2023-05-07T09:14:11;6.20;;;4.67;;
21624;SDS011;10974;51.034;3.744;2023-05-07T09:16:38;9.60;;;4.20;;
21624;SDS011;10974;51.034;3.744;2023-05-07T09:19:04;5.53;;;3.67;;
21624;SDS011;10974;51.034;3.744;2023-05-07T09:21:30;8.73;;;4.60;;
21624;SDS011;10974;51.034;3.744;2023-05-07T09:23:56;8.17;;;4.30;;
21624;SDS011;10974;51.034;3.744;2023-05-07T09:26:23;5.93;;;4.33;;
21624;SDS011;10974;51.034;3.744;2023-05-07T09:28:49;9.30;;;4.87;;
21624;SDS011;10974;51.034;3.744;2023-05-07T09:31:15;9.00;;;5.90;;
21624;SDS011;10974;51.034;3.744;2023-05-07T09:33:41;8.80;;;5.10;;
21624;SDS011;10974;51.034;3.744;2023-05-07T09:36:08;7.77;;;5.30;;
21624;SDS011;10974;51.034;3.744;2023-05-07T09:38:35;7.67;;;4.23;;
21624;SDS011;10974;51.034;3.744;2023-05-07T09:41:02;6.87;;;4.57;;
21624;SDS011;10974;51.034;3.744;2023-05-07T09:43:31;7.40;;;4.00;;
21624;SDS011;10974;51.034;3.744;2023-05-07T09:45:58;6.67;;;4.37;;
21624;SDS011;10974;51.034;3.744;2023-05-07T09:48:25;5.33;;;4.50;;
21624;SDS011;10974;51.034;3.744;2023-05-07T09:50:51;8.63;;;4.77;;
21624;SDS011;10974;51.034;3.744;2023-05-07T09:53:23;6.23;;;4.10;;
21624;SDS011;10974;51.034;3.744;2023-05-07T09:55:50;9.03;;;4.47;;
21624;SDS011;10974;51.034;3.744;2023-05-07T09:58:17;6.20;;;4.00;;
21624;SDS011;10974;51.034;3.744;2023-05-07T10:00:44;6.23;;;3.90;;
21624;SDS011;10974;51.034;3.744;2023-05-07T10:03:11;9.97;;;4.40;;
21624;SDS011;10974;51.034;3.744;2023-05-07T10:05:39;5.80;;;4.40;;
21624;SDS011;10974;51.034;3.744;2023-05-07T10:08:05;5.80;;;3.70;;
21624;SDS011;10974;51.034;3.744;2023-05-07T10:10:32;7.73;;;4.43;;
21624;SDS011;10974;51.034;3.744;2023-05-07T10:12:59;4.93;;;3.30;;
21624;SDS011;10974;51.034;3.744;2023-05-07T10:15:25;5.60;;;3.13;;
21624;SDS011;10974;51.034;3.744;2023-05-07T10:17:52;5.13;;;2.80;;
21624;SDS011;10974;51.034;3.744;2023-05-07T10:20:19;5.20;;;3.23;;
21624;SDS011;10974;51.034;3.744;2023-05-07T10:22:46;6.30;;;2.73;;
21624;SDS011;10974;51.034;3.744;2023-05-07T10:25:14;3.77;;;2.67;;
21624;SDS011;10974;51.034;3.744;2023-05-07T10:27:40;5.33;;;2.70;;
21624;SDS011;10974;51.034;3.744;2023-05-07T10:30:12;3.67;;;2.97;;
21624;SDS011;10974;51.034;3.744;2023-05-07T10:32:48;4.50;;;2.70;;
21624;SDS011;10974;51.034;3.744;2023-05-07T10:35:19;5.67;;;3.60;;
21624;SDS011;10974;51.034;3.744;2023-05-07T10:37:46;4.23;;;3.60;;
21624;SDS011;10974;51.034;3.744;2023-05-07T10:40:12;5.40;;;3.40;;
21624;SDS011;10974;51.034;3.744;2023-05-07T10:42:39;3.40;;;2.53;;
21624;SDS011;10974;51.034;3.744;2023-05-07T10:45:18;3.13;;;2.83;;
21624;SDS011;10974;51.034;3.744;2023-05-07T10:50:29;4.10;;;2.90;;
21624;SDS011;10974;51.034;3.744;2023-05-07T10:58:55;7.67;;;2.83;;
21624;SDS011;10974;51.034;3.744;2023-05-07T11:01:48;8.00;;;3.67;;
21624;SDS011;10974;51.034;3.744;2023-05-07T11:04:17;3.60;;;2.70;;
21624;SDS011;10974;51.034;3.744;2023-05-07T11:15:08;3.40;;;2.80;;
21624;SDS011;10974;51.034;3.744;2023-05-07T11:17:52;2.90;;;2.60;;
21624;SDS011;10974;51.034;3.744;2023-05-07T11:20:18;5.37;;;2.77;;
21624;SDS011;10974;51.034;3.744;2023-05-07T11:22:44;4.50;;;3.07;;
21624;SDS011;10974;51.034;3.744;2023-05-07T11:25:10;3.37;;;2.20;;
21624;SDS011;10974;51.034;3.744;2023-05-07T11:27:42;4.50;;;2.53;;
21624;SDS011;10974;51.034;3.744;2023-05-07T11:30:09;3.33;;;2.30;;
21624;SDS011;10974;51.034;3.744;2023-05-07T11:32:35;3.23;;;2.47;;
21624;SDS011;10974;51.034;3.744;2023-05-07T11:35:01;4.33;;;2.40;;
21624;SDS011;10974;51.034;3.744;2023-05-07T11:37:27;2.20;;;2.00;;
21624;SDS011;10974;51.034;3.744;2023-05-07T11:40:04;3.80;;;2.63;;
21624;SDS011;10974;51.034;3.744;2023-05-07T11:42:36;3.17;;;2.80;;
21624;SDS011;10974;51.034;3.744;2023-05-07T11:45:02;3.20;;;2.33;;
21624;SDS011;10974;51.034;3.744;2023-05-07T11:47:31;4.63;;;2.50;;
21624;SDS011;10974;51.034;3.744;2023-05-07T11:50:02;3.80;;;3.40;;
21624;SDS011;10974;51.034;3.744;2023-05-07T11:52:29;3.47;;;2.90;;
21624;SDS011;10974;51.034;3.744;2023-05-07T11:54:55;3.23;;;2.93;;
21624;SDS011;10974;51.034;3.744;2023-05-07T11:57:22;6.70;;;3.43;;
21624;SDS011;10974;51.034;3.744;2023-05-07T11:59:52;3.30;;;3.00;;
21624;SDS011;10974;51.034;3.744;2023-05-07T12:02:18;2.83;;;2.47;;
21624;SDS011;10974;51.034;3.744;2023-05-07T12:04:44;3.70;;;2.90;;
21624;SDS011;10974;51.034;3.744;2023-05-07T12:07:14;7.70;;;3.20;;
21624;SDS011;10974;51.034;3.744;2023-05-07T12:09:41;3.50;;;2.80;;
21624;SDS011;10974;51.034;3.744;2023-05-07T12:12:07;8.87;;;3.20;;
21624;SDS011;10974;51.034;3.744;2023-05-07T12:14:37;4.63;;;2.80;;
21624;SDS011;10974;51.034;3.744;2023-05-07T12:17:03;4.40;;;3.17;;
21624;SDS011;10974;51.034;3.744;2023-05-07T12:19:30;5.00;;;2.87;;
21624;SDS011;10974;51.034;3.744;2023-05-07T12:21:57;3.73;;;3.03;;
21624;SDS011;10974;51.034;3.744;2023-05-07T12:24:23;4.20;;;3.20;;
21624;SDS011;10974;51.034;3.744;2023-05-07T12:26:49;5.10;;;3.43;;
21624;SDS011;10974;51.034;3.744;2023-05-07T12:29:15;3.20;;;2.63;;
21624;SDS011;10974;51.034;3.744;2023-05-07T12:31:42;4.10;;;2.93;;
21624;SDS011;10974;51.034;3.744;2023-05-07T12:34:08;4.30;;;3.27;;
21624;SDS011;10974;51.034;3.744;2023-05-07T12:36:36;3.87;;;2.80;;
21624;SDS011;10974;51.034;3.744;2023-05-07T12:39:04;4.07;;;3.10;;
21624;SDS011;10974;51.034;3.744;2023-05-07T12:41:30;2.73;;;2.53;;
21624;SDS011;10974;51.034;3.744;2023-05-07T12:43:56;3.33;;;3.00;;
21624;SDS011;10974;51.034;3.744;2023-05-07T12:46:23;3.07;;;2.77;;
21624;SDS011;10974;51.034;3.744;2023-05-07T12:48:49;5.90;;;2.90;;
21624;SDS011;10974;51.034;3.744;2023-05-07T12:51:15;3.40;;;3.10;;
21624;SDS011;10974;51.034;3.744;2023-05-07T12:53:42;2.53;;;2.33;;
21624;SDS011;10974;51.034;3.744;2023-05-07T12:56:08;3.10;;;2.50;;
21624;SDS011;10974;51.034;3.744;2023-05-07T12:58:35;3.30;;;3.00;;
21624;SDS011;10974;51.034;3.744;2023-05-07T13:01:06;4.30;;;3.10;;
21624;SDS011;10974;51.034;3.744;2023-05-07T13:03:35;2.90;;;2.60;;
21624;SDS011;10974;51.034;3.744;2023-05-07T13:06:06;3.53;;;2.40;;
21624;SDS011;10974;51.034;3.744;2023-05-07T13:08:35;4.37;;;2.57;;
21624;SDS011;10974;51.034;3.744;2023-05-07T13:11:02;3.73;;;2.70;;
21624;SDS011;10974;51.034;3.744;2023-05-07T13:13:33;5.80;;;3.07;;
21624;SDS011;10974;51.034;3.744;2023-05-07T13:16:00;3.33;;;2.83;;
21624;SDS011;10974;51.034;3.744;2023-05-07T13:18:26;4.30;;;2.70;;
21624;SDS011;10974;51.034;3.744;2023-05-07T13:20:53;6.30;;;3.27;;
21624;SDS011;10974;51.034;3.744;2023-05-07T13:23:19;4.33;;;3.07;;
21624;SDS011;10974;51.034;3.744;2023-05-07T13:25:46;5.40;;;3.00;;
21624;SDS011;10974;51.034;3.744;2023-05-07T13:28:12;3.00;;;2.70;;
21624;SDS011;10974;51.034;3.744;2023-05-07T13:30:38;3.73;;;2.70;;
21624;SDS011;10974;51.034;3.744;2023-05-07T13:33:05;7.40;;;3.60;;
21624;SDS011;10974;51.034;3.744;2023-05-07T13:35:32;3.30;;;3.00;;
21624;SDS011;10974;51.034;3.744;2023-05-07T13:37:58;4.23;;;3.70;;
21624;SDS011;10974;51.034;3.744;2023-05-07T13:40:24;5.90;;;3.03;;
21624;SDS011;10974;51.034;3.744;2023-05-07T13:42:50;5.27;;;2.90;;
21624;SDS011;10974;51.034;3.744;2023-05-07T13:45:19;8.50;;;3.13;;
21624;SDS011;10974;51.034;3.744;2023-05-07T13:47:45;2.87;;;2.40;;
21624;SDS011;10974;51.034;3.744;2023-05-07T13:50:12;2.90;;;2.60;;
21624;SDS011;10974;51.034;3.744;2023-05-07T13:52:40;4.10;;;2.53;;
21624;SDS011;10974;51.034;3.744;2023-05-07T13:55:07;3.53;;;2.77;;
21624;SDS011;10974;51.034;3.744;2023-05-07T13:57:33;4.30;;;3.37;;
21624;SDS011;10974;51.034;3.744;2023-05-07T13:59:59;4.07;;;2.97;;
21624;SDS011;10974;51.034;3.744;2023-05-07T14:02:25;5.13;;;2.80;;
21624;SDS011;10974;51.034;3.744;2023-05-07T14:04:51;4.10;;;2.80;;
21624;SDS011;10974;51.034;3.744;2023-05-07T14:07:17;4.20;;;3.40;;
21624;SDS011;10974;51.034;3.744;2023-05-07T14:09:43;4.47;;;3.03;;
21624;SDS011;10974;51.034;3.744;2023-05-07T14:12:10;3.50;;;2.80;;
21624;SDS011;10974;51.034;3.744;2023-05-07T14:14:36;4.13;;;3.20;;
21624;SDS011;10974;51.034;3.744;2023-05-07T14:17:02;3.37;;;3.00;;
21624;SDS011;10974;51.034;3.744;2023-05-07T14:19:28;5.43;;;3.50;;
21624;SDS011;10974;51.034;3.744;2023-05-07T14:21:54;3.83;;;2.80;;
21624;SDS011;10974;51.034;3.744;2023-05-07T14:24:21;4.10;;;3.03;;
21624;SDS011;10974;51.034;3.744;2023-05-07T14:26:47;3.77;;;3.43;;
21624;SDS011;10974;51.034;3.744;2023-05-07T14:29:13;4.67;;;3.00;;
21624;SDS011;10974;51.034;3.744;2023-05-07T14:31:43;6.03;;;3.60;;
21624;SDS011;10974;51.034;3.744;2023-05-07T14:34:10;4.23;;;3.83;;
21624;SDS011;10974;51.034;3.744;2023-05-07T14:36:36;5.97;;;4.30;;
21624;SDS011;10974;51.034;3.744;2023-05-07T14:39:03;4.60;;;4.17;;
21624;SDS011;10974;51.034;3.744;2023-05-07T14:41:29;6.27;;;4.40;;
21624;SDS011;10974;51.034;3.744;2023-05-07T14:43:56;4.43;;;4.00;;
21624;SDS011;10974;51.034;3.744;2023-05-07T14:46:23;4.80;;;3.90;;
21624;SDS011;10974;51.034;3.744;2023-05-07T14:48:50;5.77;;;4.43;;
21624;SDS011;10974;51.034;3.744;2023-05-07T14:51:16;4.83;;;4.33;;
21624;SDS011;10974;51.034;3.744;2023-05-07T14:53:43;11.50;;;4.63;;
21624;SDS011;10974;51.034;3.744;2023-05-07T14:56:09;5.47;;;4.53;;
21624;SDS011;10974;51.034;3.744;2023-05-07T14:58:35;4.90;;;3.43;;
21624;SDS011;10974;51.034;3.744;2023-05-07T15:01:02;2.70;;;2.50;;
21624;SDS011;10974;51.034;3.744;2023-05-07T15:03:28;3.67;;;3.10;;
21624;SDS011;10974;51.034;3.744;2023-05-07T15:05:54;4.07;;;3.27;;
21624;SDS011;10974;51.034;3.744;2023-05-07T15:08:20;3.10;;;2.80;;
21624;SDS011;10974;51.034;3.744;2023-05-07T15:10:47;4.00;;;3.00;;
21624;SDS011;10974;51.034;3.744;2023-05-07T15:13:13;5.37;;;4.10;;
21624;SDS011;10974;51.034;3.744;2023-05-07T15:15:39;4.77;;;3.20;;
21624;SDS011;10974;51.034;3.744;2023-05-07T15:18:05;6.80;;;4.10;;
21624;SDS011;10974;51.034;3.744;2023-05-07T15:20:31;4.33;;;3.47;;
21624;SDS011;10974;51.034;3.744;2023-05-07T15:22:57;5.03;;;4.00;;
21624;SDS011;10974;51.034;3.744;2023-05-07T15:25:23;4.40;;;3.90;;
21624;SDS011;10974;51.034;3.744;2023-05-07T15:27:50;5.50;;;3.40;;
21624;SDS011;10974;51.034;3.744;2023-05-07T15:30:17;4.27;;;3.87;;
21624;SDS011;10974;51.034;3.744;2023-05-07T15:32:44;4.63;;;4.07;;
21624;SDS011;10974;51.034;3.744;2023-05-07T15:35:11;4.67;;;3.70;;
21624;SDS011;10974;51.034;3.744;2023-05-07T15:37:37;6.77;;;3.97;;
21624;SDS011;10974;51.034;3.744;2023-05-07T15:40:03;8.23;;;4.00;;
21624;SDS011;10974;51.034;3.744;2023-05-07T15:42:31;5.20;;;4.40;;
21624;SDS011;10974;51.034;3.744;2023-05-07T15:44:58;4.03;;;3.57;;
21624;SDS011;10974;51.034;3.744;2023-05-07T15:47:25;6.10;;;3.90;;
21624;SDS011;10974;51.034;3.744;2023-05-07T15:49:51;4.90;;;4.33;;
21624;SDS011;10974;51.034;3.744;2023-05-07T15:52:17;5.17;;;3.30;;
21624;SDS011;10974;51.034;3.744;2023-05-07T15:54:43;3.47;;;3.17;;
21624;SDS011;10974;51.034;3.744;2023-05-07T15:57:09;7.10;;;3.17;;
21624;SDS011;10974;51.034;3.744;2023-05-07T15:59:36;3.80;;;2.90;;
21624;SDS011;10974;51.034;3.744;2023-05-07T16:02:02;3.63;;;3.10;;
21624;SDS011;10974;51.034;3.744;2023-05-07T16:04:28;3.20;;;2.40;;
21624;SDS011;10974;51.034;3.744;2023-05-07T16:06:55;6.10;;;2.70;;
21624;SDS011;10974;51.034;3.744;2023-05-07T16:09:21;4.57;;;2.83;;
21624;SDS011;10974;51.034;3.744;2023-05-07T16:11:49;3.33;;;2.63;;
21624;SDS011;10974;51.034;3.744;2023-05-07T16:14:15;3.50;;;2.90;;
21624;SDS011;10974;51.034;3.744;2023-05-07T16:16:41;4.33;;;3.03;;
21624;SDS011;10974;51.034;3.744;2023-05-07T16:19:07;3.73;;;2.57;;
21624;SDS011;10974;51.034;3.744;2023-05-07T16:21:33;3.30;;;2.90;;
21624;SDS011;10974;51.034;3.744;2023-05-07T16:24:00;2.93;;;2.63;;
21624;SDS011;10974;51.034;3.744;2023-05-07T16:26:26;3.20;;;2.60;;
21624;SDS011;10974;51.034;3.744;2023-05-07T16:28:53;3.40;;;2.90;;
21624;SDS011;10974;51.034;3.744;2023-05-07T16:31:19;3.53;;;2.60;;
21624;SDS011;10974;51.034;3.744;2023-05-07T16:33:45;2.77;;;2.57;;
21624;SDS011;10974;51.034;3.744;2023-05-07T16:36:11;4.00;;;2.50;;
21624;SDS011;10974;51.034;3.744;2023-05-07T16:38:37;2.53;;;2.20;;
21624;SDS011;10974;51.034;3.744;2023-05-07T16:41:03;2.50;;;2.20;;
21624;SDS011;10974;51.034;3.744;2023-05-07T16:43:32;2.53;;;2.10;;
21624;SDS011;10974;51.034;3.744;2023-05-07T16:45:58;4.80;;;3.20;;
21624;SDS011;10974;51.034;3.744;2023-05-07T16:48:24;4.10;;;3.17;;
21624;SDS011;10974;51.034;3.744;2023-05-07T16:50:51;3.90;;;3.30;;
21624;SDS011;10974;51.034;3.744;2023-05-07T16:53:17;4.57;;;3.77;;
21624;SDS011;10974;51.034;3.744;2023-05-07T16:55:44;6.93;;;4.10;;
21624;SDS011;10974;51.034;3.744;2023-05-07T16:58:10;7.30;;;4.90;;
21624;SDS011;10974;51.034;3.744;2023-05-07T17:00:37;7.23;;;4.27;;
21624;SDS011;10974;51.034;3.744;2023-05-07T17:03:03;5.13;;;4.30;;
21624;SDS011;10974;51.034;3.744;2023-05-07T17:05:30;8.60;;;7.13;;
21624;SDS011;10974;51.034;3.744;2023-05-07T17:07:56;14.80;;;11.10;;
21624;SDS011;10974;51.034;3.744;2023-05-07T17:10:23;20.87;;;14.13;;
21624;SDS011;10974;51.034;3.744;2023-05-07T17:12:52;20.80;;;13.70;;
21624;SDS011;10974;51.034;3.744;2023-05-07T17:15:18;26.20;;;16.70;;
21624;SDS011;10974;51.034;3.744;2023-05-07T17:17:44;25.83;;;15.73;;
21624;SDS011;10974;51.034;3.744;2023-05-07T17:20:11;26.80;;;20.03;;
21624;SDS011;10974;51.034;3.744;2023-05-07T17:22:37;33.23;;;20.13;;
21624;SDS011;10974;51.034;3.744;2023-05-07T17:25:03;27.77;;;21.13;;
21624;SDS011;10974;51.034;3.744;2023-05-07T17:27:30;29.50;;;20.57;;
21624;SDS011;10974;51.034;3.744;2023-05-07T17:29:56;27.57;;;20.00;;
21624;SDS011;10974;51.034;3.744;2023-05-07T17:32:22;30.87;;;20.40;;
21624;SDS011;10974;51.034;3.744;2023-05-07T17:34:48;28.20;;;20.47;;
21624;SDS011;10974;51.034;3.744;2023-05-07T17:37:14;32.50;;;22.10;;
21624;SDS011;10974;51.034;3.744;2023-05-07T17:39:40;26.97;;;20.47;;
21624;SDS011;10974;51.034;3.744;2023-05-07T17:42:06;27.80;;;21.63;;
21624;SDS011;10974;51.034;3.744;2023-05-07T17:44:33;30.60;;;21.90;;
21624;SDS011;10974;51.034;3.744;2023-05-07T17:46:59;30.43;;;23.77;;
21624;SDS011;10974;51.034;3.744;2023-05-07T17:49:25;34.13;;;26.43;;
21624;SDS011;10974;51.034;3.744;2023-05-07T17:51:52;27.93;;;22.50;;
21624;SDS011;10974;51.034;3.744;2023-05-07T17:54:19;24.10;;;19.40;;
21624;SDS011;10974;51.034;3.744;2023-05-07T17:56:47;28.30;;;20.40;;
21624;SDS011;10974;51.034;3.744;2023-05-07T17:59:13;25.50;;;21.23;;
21624;SDS011;10974;51.034;3.744;2023-05-07T18:01:42;20.20;;;15.23;;
21624;SDS011;10974;51.034;3.744;2023-05-07T18:04:09;19.43;;;14.77;;
21624;SDS011;10974;51.034;3.744;2023-05-07T18:06:36;19.40;;;15.73;;
21624;SDS011;10974;51.034;3.744;2023-05-07T18:09:04;19.50;;;14.37;;
21624;SDS011;10974;51.034;3.744;2023-05-07T18:11:30;18.70;;;15.07;;
21624;SDS011;10974;51.034;3.744;2023-05-07T18:13:58;19.50;;;14.40;;
21624;SDS011;10974;51.034;3.744;2023-05-07T18:16:24;18.23;;;14.97;;
21624;SDS011;10974;51.034;3.744;2023-05-07T18:18:54;17.83;;;14.43;;
21624;SDS011;10974;51.034;3.744;2023-05-07T18:21:20;17.63;;;14.20;;
21624;SDS011;10974;51.034;3.744;2023-05-07T18:23:47;20.27;;;15.17;;
21624;SDS011;10974;51.034;3.744;2023-05-07T18:26:13;18.07;;;14.93;;
21624;SDS011;10974;51.034;3.744;2023-05-07T18:28:40;23.30;;;14.03;;
21624;SDS011;10974;51.034;3.744;2023-05-07T18:31:06;20.57;;;14.80;;
21624;SDS011;10974;51.034;3.744;2023-05-07T18:33:32;17.43;;;14.50;;
21624;SDS011;10974;51.034;3.744;2023-05-07T18:35:59;18.03;;;13.67;;